sensor_id;sensor_type;location;lat;lon;timestamp;P1;durP1;ratioP1;P2;durP2;ratioP2
5569;SDS011;2808;51.240;6.794;2023-09-30T00:00:59;18.03;;;6.20;;
5569;SDS011;2808;51.240;6.794;2023-09-30T00:03:26;25.23;;;6.57;;
5569;SDS011;2808;51.240;6.794;2023-09-30T00:05:54;15.00;;;5.70;;
5569;SDS011;2808;51.240;6.794;2023-09-30T00:08:21;18.93;;;5.67;;
5569;SDS011;2808;51.240;6.794;2023-09-30T00:10:50;20.43;;;5.40;;
5569;SDS011;2808;51.240;6.794;2023-09-30T00:13:19;21.70;;;5.60;;
5569;SDS011;2808;51.240;6.794;2023-09-30T00:15:46;14.47;;;5.80;;
5569;SDS011;2808;51.240;6.794;2023-09-30T00:18:14;16.67;;;5.53;;
5569;SDS011;2808;51.240;6.794;2023-09-30T00:20:41;19.13;;;5.37;;
5569;SDS011;2808;51.240;6.794;2023-09-30T00:23:09;23.90;;;6.27;;
5569;SDS011;2808;51.240;6.794;2023-09-30T00:25:36;14.83;;;5.37;;
5569;SDS011;2808;51.240;6.794;2023-09-30T00:28:06;16.70;;;5.53;;
5569;SDS011;2808;51.240;6.794;2023-09-30T00:30:33;31.43;;;6.27;;
5569;SDS011;2808;51.240;6.794;2023-09-30T00:33:01;21.03;;;6.33;;
5569;SDS011;2808;51.240;6.794;2023-09-30T00:35:28;22.27;;;5.57;;
5569;SDS011;2808;51.240;6.794;2023-09-30T00:37:57;17.87;;;6.40;;
5569;SDS011;2808;51.240;6.794;2023-09-30T00:40:25;19.90;;;6.10;;
5569;SDS011;2808;51.240;6.794;2023-09-30T00:42:52;22.50;;;6.10;;
5569;SDS011;2808;51.240;6.794;2023-09-30T00:45:22;23.80;;;6.00;;
5569;SDS011;2808;51.240;6.794;2023-09-30T00:47:50;22.33;;;6.93;;
5569;SDS011;2808;51.240;6.794;2023-09-30T00:50:18;17.43;;;6.17;;
5569;SDS011;2808;51.240;6.794;2023-09-30T00:52:47;21.93;;;5.93;;
5569;SDS011;2808;51.240;6.794;2023-09-30T00:55:19;17.13;;;6.70;;
5569;SDS011;2808;51.240;6.794;2023-09-30T00:57:47;16.30;;;6.37;;
5569;SDS011;2808;51.240;6.794;2023-09-30T01:00:15;20.27;;;5.87;;
5569;SDS011;2808;51.240;6.794;2023-09-30T01:02:45;18.07;;;5.77;;
5569;SDS011;2808;51.240;6.794;2023-09-30T01:05:13;15.40;;;5.70;;
5569;SDS011;2808;51.240;6.794;2023-09-30T01:07:41;18.53;;;5.73;;
5569;SDS011;2808;51.240;6.794;2023-09-30T01:10:08;18.17;;;5.43;;
5569;SDS011;2808;51.240;6.794;2023-09-30T01:12:36;16.83;;;6.10;;
5569;SDS011;2808;51.240;6.794;2023-09-30T01:15:04;22.80;;;6.37;;
5569;SDS011;2808;51.240;6.794;2023-09-30T01:17:31;19.70;;;6.37;;
5569;SDS011;2808;51.240;6.794;2023-09-30T01:20:00;25.43;;;5.93;;
5569;SDS011;2808;51.240;6.794;2023-09-30T01:22:31;15.97;;;6.00;;
5569;SDS011;2808;51.240;6.794;2023-09-30T01:24:58;22.90;;;6.17;;
5569;SDS011;2808;51.240;6.794;2023-09-30T01:27:26;28.67;;;5.87;;
5569;SDS011;2808;51.240;6.794;2023-09-30T01:29:53;13.30;;;4.53;;
5569;SDS011;2808;51.240;6.794;2023-09-30T01:32:23;14.90;;;5.73;;
5569;SDS011;2808;51.240;6.794;2023-09-30T01:34:50;16.13;;;6.20;;
5569;SDS011;2808;51.240;6.794;2023-09-30T01:37:17;17.23;;;5.50;;
5569;SDS011;2808;51.240;6.794;2023-09-30T01:39:46;21.53;;;5.67;;
5569;SDS011;2808;51.240;6.794;2023-09-30T01:42:15;16.97;;;5.33;;
5569;SDS011;2808;51.240;6.794;2023-09-30T01:44:43;15.57;;;5.60;;
5569;SDS011;2808;51.240;6.794;2023-09-30T01:47:10;21.93;;;6.03;;
5569;SDS011;2808;51.240;6.794;2023-09-30T01:49:38;17.27;;;5.90;;
5569;SDS011;2808;51.240;6.794;2023-09-30T01:52:05;25.00;;;5.90;;
5569;SDS011;2808;51.240;6.794;2023-09-30T01:54:33;17.53;;;5.00;;
5569;SDS011;2808;51.240;6.794;2023-09-30T01:57:02;22.83;;;6.50;;
5569;SDS011;2808;51.240;6.794;2023-09-30T01:59:29;18.73;;;5.77;;
5569;SDS011;2808;51.240;6.794;2023-09-30T02:01:57;18.77;;;6.07;;
5569;SDS011;2808;51.240;6.794;2023-09-30T02:04:24;15.13;;;5.93;;
5569;SDS011;2808;51.240;6.794;2023-09-30T02:06:51;24.60;;;6.53;;
5569;SDS011;2808;51.240;6.794;2023-09-30T02:09:19;15.20;;;5.37;;
5569;SDS011;2808;51.240;6.794;2023-09-30T02:11:46;17.77;;;5.33;;
5569;SDS011;2808;51.240;6.794;2023-09-30T02:14:15;21.00;;;6.30;;
5569;SDS011;2808;51.240;6.794;2023-09-30T02:16:45;19.03;;;5.83;;
5569;SDS011;2808;51.240;6.794;2023-09-30T02:19:13;22.73;;;6.03;;
5569;SDS011;2808;51.240;6.794;2023-09-30T02:21:40;19.23;;;5.80;;
5569;SDS011;2808;51.240;6.794;2023-09-30T02:24:09;20.47;;;6.43;;
5569;SDS011;2808;51.240;6.794;2023-09-30T02:26:36;27.13;;;6.67;;
5569;SDS011;2808;51.240;6.794;2023-09-30T02:29:04;15.77;;;5.40;;
5569;SDS011;2808;51.240;6.794;2023-09-30T02:31:34;18.80;;;5.57;;
5569;SDS011;2808;51.240;6.794;2023-09-30T02:34:01;17.70;;;5.70;;
5569;SDS011;2808;51.240;6.794;2023-09-30T02:36:29;16.93;;;5.80;;
5569;SDS011;2808;51.240;6.794;2023-09-30T02:38:56;14.37;;;7.00;;
5569;SDS011;2808;51.240;6.794;2023-09-30T02:41:24;20.33;;;7.20;;
5569;SDS011;2808;51.240;6.794;2023-09-30T02:43:51;15.83;;;5.77;;
5569;SDS011;2808;51.240;6.794;2023-09-30T02:46:19;15.60;;;6.10;;
5569;SDS011;2808;51.240;6.794;2023-09-30T02:48:47;20.80;;;5.47;;
5569;SDS011;2808;51.240;6.794;2023-09-30T02:51:15;21.30;;;6.33;;
5569;SDS011;2808;51.240;6.794;2023-09-30T02:53:42;19.50;;;5.97;;
5569;SDS011;2808;51.240;6.794;2023-09-30T02:56:10;28.13;;;12.17;;
5569;SDS011;2808;51.240;6.794;2023-09-30T02:58:37;27.83;;;10.67;;
5569;SDS011;2808;51.240;6.794;2023-09-30T03:01:05;20.57;;;7.87;;
5569;SDS011;2808;51.240;6.794;2023-09-30T03:03:34;19.03;;;6.03;;
5569;SDS011;2808;51.240;6.794;2023-09-30T03:06:03;17.70;;;5.90;;
5569;SDS011;2808;51.240;6.794;2023-09-30T03:08:31;20.80;;;5.57;;
5569;SDS011;2808;51.240;6.794;2023-09-30T03:11:00;19.67;;;6.10;;
5569;SDS011;2808;51.240;6.794;2023-09-30T03:13:28;27.30;;;8.93;;
5569;SDS011;2808;51.240;6.794;2023-09-30T03:15:56;18.10;;;6.17;;
5569;SDS011;2808;51.240;6.794;2023-09-30T03:18:23;13.70;;;5.47;;
5569;SDS011;2808;51.240;6.794;2023-09-30T03:20:51;19.27;;;5.17;;
5569;SDS011;2808;51.240;6.794;2023-09-30T03:23:22;16.03;;;5.57;;
5569;SDS011;2808;51.240;6.794;2023-09-30T03:25:55;14.87;;;5.20;;
5569;SDS011;2808;51.240;6.794;2023-09-30T03:28:23;18.07;;;5.20;;
5569;SDS011;2808;51.240;6.794;2023-09-30T03:30:50;20.97;;;6.50;;
5569;SDS011;2808;51.240;6.794;2023-09-30T03:33:17;23.13;;;7.70;;
5569;SDS011;2808;51.240;6.794;2023-09-30T03:35:45;22.87;;;6.50;;
5569;SDS011;2808;51.240;6.794;2023-09-30T03:38:15;23.13;;;6.33;;
5569;SDS011;2808;51.240;6.794;2023-09-30T03:40:46;14.37;;;5.57;;
5569;SDS011;2808;51.240;6.794;2023-09-30T03:43:13;15.17;;;5.77;;
5569;SDS011;2808;51.240;6.794;2023-09-30T03:45:41;20.27;;;5.90;;
5569;SDS011;2808;51.240;6.794;2023-09-30T03:48:08;13.40;;;5.87;;
5569;SDS011;2808;51.240;6.794;2023-09-30T03:50:36;13.93;;;5.40;;
5569;SDS011;2808;51.240;6.794;2023-09-30T03:53:04;18.00;;;6.00;;
5569;SDS011;2808;51.240;6.794;2023-09-30T03:55:32;19.50;;;5.80;;
5569;SDS011;2808;51.240;6.794;2023-09-30T03:58:01;14.50;;;5.20;;
5569;SDS011;2808;51.240;6.794;2023-09-30T04:00:29;14.30;;;5.33;;
5569;SDS011;2808;51.240;6.794;2023-09-30T04:02:56;22.10;;;6.43;;
5569;SDS011;2808;51.240;6.794;2023-09-30T04:05:24;12.40;;;5.30;;
5569;SDS011;2808;51.240;6.794;2023-09-30T04:07:54;19.07;;;7.13;;
5569;SDS011;2808;51.240;6.794;2023-09-30T04:10:22;14.20;;;5.60;;
5569;SDS011;2808;51.240;6.794;2023-09-30T04:12:50;13.53;;;6.27;;
5569;SDS011;2808;51.240;6.794;2023-09-30T04:15:19;18.07;;;6.27;;
5569;SDS011;2808;51.240;6.794;2023-09-30T04:17:47;17.13;;;6.30;;
5569;SDS011;2808;51.240;6.794;2023-09-30T04:20:16;20.17;;;6.00;;
5569;SDS011;2808;51.240;6.794;2023-09-30T04:22:48;20.13;;;5.73;;
5569;SDS011;2808;51.240;6.794;2023-09-30T04:25:22;24.33;;;6.50;;
5569;SDS011;2808;51.240;6.794;2023-09-30T04:27:51;19.33;;;6.10;;
5569;SDS011;2808;51.240;6.794;2023-09-30T04:30:19;21.97;;;6.20;;
5569;SDS011;2808;51.240;6.794;2023-09-30T04:32:47;17.90;;;5.17;;
5569;SDS011;2808;51.240;6.794;2023-09-30T04:35:15;14.50;;;5.87;;
5569;SDS011;2808;51.240;6.794;2023-09-30T04:37:43;15.37;;;5.37;;
5569;SDS011;2808;51.240;6.794;2023-09-30T04:40:11;15.27;;;5.47;;
5569;SDS011;2808;51.240;6.794;2023-09-30T04:42:43;17.70;;;6.40;;
5569;SDS011;2808;51.240;6.794;2023-09-30T04:45:11;14.70;;;5.33;;
5569;SDS011;2808;51.240;6.794;2023-09-30T04:47:46;23.30;;;8.47;;
5569;SDS011;2808;51.240;6.794;2023-09-30T04:50:17;17.73;;;6.13;;
5569;SDS011;2808;51.240;6.794;2023-09-30T04:52:46;18.03;;;5.50;;
5569;SDS011;2808;51.240;6.794;2023-09-30T04:55:19;15.43;;;6.07;;
5569;SDS011;2808;51.240;6.794;2023-09-30T04:57:47;20.07;;;6.03;;
5569;SDS011;2808;51.240;6.794;2023-09-30T05:00:15;24.53;;;7.00;;
5569;SDS011;2808;51.240;6.794;2023-09-30T05:02:45;22.83;;;7.13;;
5569;SDS011;2808;51.240;6.794;2023-09-30T05:05:13;25.57;;;8.30;;
5569;SDS011;2808;51.240;6.794;2023-09-30T05:07:40;18.60;;;6.10;;
5569;SDS011;2808;51.240;6.794;2023-09-30T05:10:08;16.60;;;5.67;;
5569;SDS011;2808;51.240;6.794;2023-09-30T05:12:40;16.30;;;5.60;;
5569;SDS011;2808;51.240;6.794;2023-09-30T05:15:10;16.77;;;5.90;;
5569;SDS011;2808;51.240;6.794;2023-09-30T05:17:40;15.07;;;5.57;;
5569;SDS011;2808;51.240;6.794;2023-09-30T05:20:10;16.67;;;5.50;;
5569;SDS011;2808;51.240;6.794;2023-09-30T05:22:38;17.80;;;5.90;;
5569;SDS011;2808;51.240;6.794;2023-09-30T05:25:09;18.57;;;6.13;;
5569;SDS011;2808;51.240;6.794;2023-09-30T05:27:37;16.53;;;6.50;;
5569;SDS011;2808;51.240;6.794;2023-09-30T05:30:05;18.73;;;5.47;;
5569;SDS011;2808;51.240;6.794;2023-09-30T05:32:35;13.13;;;5.77;;
5569;SDS011;2808;51.240;6.794;2023-09-30T05:35:03;17.10;;;6.63;;
5569;SDS011;2808;51.240;6.794;2023-09-30T05:37:38;17.50;;;6.40;;
5569;SDS011;2808;51.240;6.794;2023-09-30T05:40:08;11.80;;;5.30;;
5569;SDS011;2808;51.240;6.794;2023-09-30T05:42:45;14.50;;;6.07;;
5569;SDS011;2808;51.240;6.794;2023-09-30T05:45:13;16.90;;;6.30;;
5569;SDS011;2808;51.240;6.794;2023-09-30T05:47:41;24.10;;;6.43;;
5569;SDS011;2808;51.240;6.794;2023-09-30T05:50:09;18.20;;;6.70;;
5569;SDS011;2808;51.240;6.794;2023-09-30T05:52:41;19.57;;;7.10;;
5569;SDS011;2808;51.240;6.794;2023-09-30T05:55:09;16.60;;;7.17;;
5569;SDS011;2808;51.240;6.794;2023-09-30T05:57:37;16.10;;;6.97;;
5569;SDS011;2808;51.240;6.794;2023-09-30T06:00:05;16.70;;;6.60;;
5569;SDS011;2808;51.240;6.794;2023-09-30T06:02:53;20.30;;;7.17;;
5569;SDS011;2808;51.240;6.794;2023-09-30T06:05:20;21.70;;;7.27;;
5569;SDS011;2808;51.240;6.794;2023-09-30T06:07:49;22.03;;;7.13;;
5569;SDS011;2808;51.240;6.794;2023-09-30T06:10:19;28.50;;;7.90;;
5569;SDS011;2808;51.240;6.794;2023-09-30T06:12:46;21.73;;;7.93;;
5569;SDS011;2808;51.240;6.794;2023-09-30T06:15:14;28.80;;;7.87;;
5569;SDS011;2808;51.240;6.794;2023-09-30T06:17:46;17.60;;;7.53;;
5569;SDS011;2808;51.240;6.794;2023-09-30T06:20:15;26.67;;;8.53;;
5569;SDS011;2808;51.240;6.794;2023-09-30T06:22:43;27.73;;;7.73;;
5569;SDS011;2808;51.240;6.794;2023-09-30T06:25:13;23.87;;;8.03;;
5569;SDS011;2808;51.240;6.794;2023-09-30T06:27:46;19.33;;;8.03;;
5569;SDS011;2808;51.240;6.794;2023-09-30T06:30:23;24.73;;;9.60;;
5569;SDS011;2808;51.240;6.794;2023-09-30T06:32:54;22.13;;;7.80;;
5569;SDS011;2808;51.240;6.794;2023-09-30T06:35:22;22.70;;;8.00;;
5569;SDS011;2808;51.240;6.794;2023-09-30T06:37:51;17.43;;;7.47;;
5569;SDS011;2808;51.240;6.794;2023-09-30T06:40:26;23.17;;;7.40;;
5569;SDS011;2808;51.240;6.794;2023-09-30T06:42:54;25.20;;;8.50;;
5569;SDS011;2808;51.240;6.794;2023-09-30T06:45:22;20.43;;;8.23;;
5569;SDS011;2808;51.240;6.794;2023-09-30T06:47:49;21.77;;;8.93;;
5569;SDS011;2808;51.240;6.794;2023-09-30T06:50:17;19.27;;;7.63;;
5569;SDS011;2808;51.240;6.794;2023-09-30T06:52:46;21.90;;;9.50;;
5569;SDS011;2808;51.240;6.794;2023-09-30T06:55:14;21.37;;;8.20;;
5569;SDS011;2808;51.240;6.794;2023-09-30T06:57:44;16.83;;;7.47;;
5569;SDS011;2808;51.240;6.794;2023-09-30T07:00:14;19.70;;;8.47;;
5569;SDS011;2808;51.240;6.794;2023-09-30T07:02:42;20.13;;;8.37;;
5569;SDS011;2808;51.240;6.794;2023-09-30T07:05:10;15.10;;;7.60;;
5569;SDS011;2808;51.240;6.794;2023-09-30T07:07:42;19.07;;;8.63;;
5569;SDS011;2808;51.240;6.794;2023-09-30T07:10:10;25.20;;;8.17;;
5569;SDS011;2808;51.240;6.794;2023-09-30T07:12:38;16.60;;;7.83;;
5569;SDS011;2808;51.240;6.794;2023-09-30T07:15:10;23.90;;;8.13;;
5569;SDS011;2808;51.240;6.794;2023-09-30T07:17:39;17.33;;;8.37;;
5569;SDS011;2808;51.240;6.794;2023-09-30T07:20:07;25.30;;;8.10;;
5569;SDS011;2808;51.240;6.794;2023-09-30T07:22:36;18.00;;;8.17;;
5569;SDS011;2808;51.240;6.794;2023-09-30T07:31:54;21.27;;;7.50;;
5569;SDS011;2808;51.240;6.794;2023-09-30T07:34:24;21.53;;;8.37;;
5569;SDS011;2808;51.240;6.794;2023-09-30T07:36:53;19.50;;;7.70;;
5569;SDS011;2808;51.240;6.794;2023-09-30T07:39:20;21.70;;;8.70;;
5569;SDS011;2808;51.240;6.794;2023-09-30T07:41:48;18.00;;;8.27;;
5569;SDS011;2808;51.240;6.794;2023-09-30T07:44:15;22.30;;;8.67;;
5569;SDS011;2808;51.240;6.794;2023-09-30T07:46:43;21.47;;;8.33;;
5569;SDS011;2808;51.240;6.794;2023-09-30T07:49:11;18.73;;;8.40;;
5569;SDS011;2808;51.240;6.794;2023-09-30T07:51:39;21.93;;;8.50;;
5569;SDS011;2808;51.240;6.794;2023-09-30T07:54:07;19.67;;;9.63;;
5569;SDS011;2808;51.240;6.794;2023-09-30T07:56:36;19.23;;;8.27;;
5569;SDS011;2808;51.240;6.794;2023-09-30T07:59:03;21.10;;;8.73;;
5569;SDS011;2808;51.240;6.794;2023-09-30T08:01:31;28.57;;;10.20;;
5569;SDS011;2808;51.240;6.794;2023-09-30T08:04:00;17.50;;;7.40;;
5569;SDS011;2808;51.240;6.794;2023-09-30T08:06:30;22.33;;;9.33;;
5569;SDS011;2808;51.240;6.794;2023-09-30T08:08:58;24.10;;;9.37;;
5569;SDS011;2808;51.240;6.794;2023-09-30T08:11:25;19.73;;;9.37;;
5569;SDS011;2808;51.240;6.794;2023-09-30T08:13:55;19.33;;;10.47;;
5569;SDS011;2808;51.240;6.794;2023-09-30T08:16:24;27.13;;;10.80;;
5569;SDS011;2808;51.240;6.794;2023-09-30T08:18:51;25.83;;;10.60;;
5569;SDS011;2808;51.240;6.794;2023-09-30T08:21:19;20.73;;;10.37;;
5569;SDS011;2808;51.240;6.794;2023-09-30T08:23:49;26.13;;;10.60;;
5569;SDS011;2808;51.240;6.794;2023-09-30T08:26:17;23.47;;;10.00;;
5569;SDS011;2808;51.240;6.794;2023-09-30T08:28:44;23.37;;;11.20;;
5569;SDS011;2808;51.240;6.794;2023-09-30T08:31:12;31.57;;;11.50;;
5569;SDS011;2808;51.240;6.794;2023-09-30T08:33:42;24.77;;;11.07;;
5569;SDS011;2808;51.240;6.794;2023-09-30T08:36:11;26.77;;;9.90;;
5569;SDS011;2808;51.240;6.794;2023-09-30T08:38:39;21.80;;;10.67;;
5569;SDS011;2808;51.240;6.794;2023-09-30T08:41:16;25.90;;;11.10;;
5569;SDS011;2808;51.240;6.794;2023-09-30T08:43:56;22.97;;;10.40;;
5569;SDS011;2808;51.240;6.794;2023-09-30T08:46:28;21.20;;;9.80;;
5569;SDS011;2808;51.240;6.794;2023-09-30T08:49:08;16.70;;;8.87;;
5569;SDS011;2808;51.240;6.794;2023-09-30T08:51:42;20.30;;;8.80;;
5569;SDS011;2808;51.240;6.794;2023-09-30T08:54:32;20.90;;;8.93;;
5569;SDS011;2808;51.240;6.794;2023-09-30T08:57:01;18.67;;;8.80;;
5569;SDS011;2808;51.240;6.794;2023-09-30T08:59:30;24.70;;;10.57;;
5569;SDS011;2808;51.240;6.794;2023-09-30T09:02:05;23.23;;;9.20;;
5569;SDS011;2808;51.240;6.794;2023-09-30T09:04:38;16.90;;;8.60;;
5569;SDS011;2808;51.240;6.794;2023-09-30T09:07:11;25.47;;;8.00;;
5569;SDS011;2808;51.240;6.794;2023-09-30T09:09:39;18.23;;;7.97;;
5569;SDS011;2808;51.240;6.794;2023-09-30T09:12:18;19.90;;;7.80;;
5569;SDS011;2808;51.240;6.794;2023-09-30T09:14:46;25.10;;;8.60;;
5569;SDS011;2808;51.240;6.794;2023-09-30T09:17:13;18.10;;;8.67;;
5569;SDS011;2808;51.240;6.794;2023-09-30T09:19:42;16.47;;;7.90;;
5569;SDS011;2808;51.240;6.794;2023-09-30T09:22:37;25.57;;;8.80;;
5569;SDS011;2808;51.240;6.794;2023-09-30T09:25:05;20.80;;;8.63;;
5569;SDS011;2808;51.240;6.794;2023-09-30T09:27:52;14.87;;;6.90;;
5569;SDS011;2808;51.240;6.794;2023-09-30T09:30:45;13.93;;;6.60;;
5569;SDS011;2808;51.240;6.794;2023-09-30T09:33:31;18.93;;;6.50;;
5569;SDS011;2808;51.240;6.794;2023-09-30T09:36:17;24.00;;;8.07;;
5569;SDS011;2808;51.240;6.794;2023-09-30T09:38:51;15.20;;;6.80;;
5569;SDS011;2808;51.240;6.794;2023-09-30T09:41:24;20.10;;;8.17;;
5569;SDS011;2808;51.240;6.794;2023-09-30T09:46:49;24.50;;;7.23;;
5569;SDS011;2808;51.240;6.794;2023-09-30T09:49:24;19.00;;;7.27;;
5569;SDS011;2808;51.240;6.794;2023-09-30T09:55:36;17.37;;;5.50;;
5569;SDS011;2808;51.240;6.794;2023-09-30T10:09:16;16.73;;;5.83;;
5569;SDS011;2808;51.240;6.794;2023-09-30T13:05:10;12.70;;;3.43;;
5569;SDS011;2808;51.240;6.794;2023-09-30T13:07:38;10.27;;;2.90;;
5569;SDS011;2808;51.240;6.794;2023-09-30T13:10:06;8.57;;;2.90;;
5569;SDS011;2808;51.240;6.794;2023-09-30T13:12:40;14.13;;;3.80;;
5569;SDS011;2808;51.240;6.794;2023-09-30T13:15:07;10.97;;;3.20;;
5569;SDS011;2808;51.240;6.794;2023-09-30T13:17:35;10.17;;;3.57;;
5569;SDS011;2808;51.240;6.794;2023-09-30T13:23:23;9.13;;;3.13;;
5569;SDS011;2808;51.240;6.794;2023-09-30T13:25:54;8.03;;;2.80;;
5569;SDS011;2808;51.240;6.794;2023-09-30T13:28:23;8.07;;;2.80;;
5569;SDS011;2808;51.240;6.794;2023-09-30T13:30:53;8.13;;;3.00;;
5569;SDS011;2808;51.240;6.794;2023-09-30T13:33:29;12.63;;;2.80;;
5569;SDS011;2808;51.240;6.794;2023-09-30T13:35:57;10.27;;;2.80;;
5569;SDS011;2808;51.240;6.794;2023-09-30T13:38:27;11.50;;;3.07;;
5569;SDS011;2808;51.240;6.794;2023-09-30T13:40:54;9.87;;;2.93;;
5569;SDS011;2808;51.240;6.794;2023-09-30T13:43:22;10.40;;;3.27;;
5569;SDS011;2808;51.240;6.794;2023-09-30T13:45:52;7.50;;;3.10;;
5569;SDS011;2808;51.240;6.794;2023-09-30T13:48:19;7.30;;;3.00;;
5569;SDS011;2808;51.240;6.794;2023-09-30T13:50:48;8.10;;;2.80;;
5569;SDS011;2808;51.240;6.794;2023-09-30T13:53:15;7.30;;;2.90;;
5569;SDS011;2808;51.240;6.794;2023-09-30T13:55:44;12.67;;;3.47;;
5569;SDS011;2808;51.240;6.794;2023-09-30T13:58:12;10.43;;;3.30;;
5569;SDS011;2808;51.240;6.794;2023-09-30T14:00:40;8.77;;;3.20;;
5569;SDS011;2808;51.240;6.794;2023-09-30T14:03:13;10.23;;;3.20;;
5569;SDS011;2808;51.240;6.794;2023-09-30T14:05:42;6.30;;;2.70;;
5569;SDS011;2808;51.240;6.794;2023-09-30T14:08:10;9.57;;;3.33;;
5569;SDS011;2808;51.240;6.794;2023-09-30T14:13:28;9.73;;;3.13;;
5569;SDS011;2808;51.240;6.794;2023-09-30T14:15:55;12.40;;;3.10;;
5569;SDS011;2808;51.240;6.794;2023-09-30T14:18:22;9.70;;;3.00;;
5569;SDS011;2808;51.240;6.794;2023-09-30T14:20:53;11.33;;;4.50;;
5569;SDS011;2808;51.240;6.794;2023-09-30T14:23:23;8.90;;;3.47;;
5569;SDS011;2808;51.240;6.794;2023-09-30T14:36:07;8.90;;;3.20;;
5569;SDS011;2808;51.240;6.794;2023-09-30T14:42:15;10.97;;;3.87;;
5569;SDS011;2808;51.240;6.794;2023-09-30T14:45:37;7.17;;;2.87;;
5569;SDS011;2808;51.240;6.794;2023-09-30T14:48:23;7.13;;;2.83;;
5569;SDS011;2808;51.240;6.794;2023-09-30T14:50:51;11.47;;;3.27;;
5569;SDS011;2808;51.240;6.794;2023-09-30T14:57:19;13.87;;;5.30;;
5569;SDS011;2808;51.240;6.794;2023-09-30T15:10:33;7.97;;;3.20;;
5569;SDS011;2808;51.240;6.794;2023-09-30T15:14:00;11.67;;;3.80;;
5569;SDS011;2808;51.240;6.794;2023-09-30T15:16:29;10.80;;;3.53;;
5569;SDS011;2808;51.240;6.794;2023-09-30T15:18:57;9.77;;;3.37;;
5569;SDS011;2808;51.240;6.794;2023-09-30T15:21:24;5.83;;;2.73;;
5569;SDS011;2808;51.240;6.794;2023-09-30T15:23:52;10.40;;;3.13;;
5569;SDS011;2808;51.240;6.794;2023-09-30T15:26:20;8.93;;;3.30;;
5569;SDS011;2808;51.240;6.794;2023-09-30T15:28:48;7.20;;;3.40;;
5569;SDS011;2808;51.240;6.794;2023-09-30T15:31:17;8.20;;;3.07;;
5569;SDS011;2808;51.240;6.794;2023-09-30T15:33:45;9.47;;;3.23;;
5569;SDS011;2808;51.240;6.794;2023-09-30T15:36:13;14.50;;;3.03;;
5569;SDS011;2808;51.240;6.794;2023-09-30T15:38:42;8.50;;;3.33;;
5569;SDS011;2808;51.240;6.794;2023-09-30T15:41:11;7.97;;;3.03;;
5569;SDS011;2808;51.240;6.794;2023-09-30T15:43:39;11.07;;;4.50;;
5569;SDS011;2808;51.240;6.794;2023-09-30T15:46:08;14.47;;;8.90;;
5569;SDS011;2808;51.240;6.794;2023-09-30T15:48:37;10.17;;;3.93;;
5569;SDS011;2808;51.240;6.794;2023-09-30T15:51:05;7.20;;;2.90;;
5569;SDS011;2808;51.240;6.794;2023-09-30T15:53:35;20.00;;;5.93;;
5569;SDS011;2808;51.240;6.794;2023-09-30T15:56:09;8.47;;;3.30;;
5569;SDS011;2808;51.240;6.794;2023-09-30T15:58:37;10.70;;;3.47;;
5569;SDS011;2808;51.240;6.794;2023-09-30T16:01:04;9.53;;;3.60;;
5569;SDS011;2808;51.240;6.794;2023-09-30T16:03:32;9.83;;;3.60;;
5569;SDS011;2808;51.240;6.794;2023-09-30T16:06:03;9.10;;;3.17;;
5569;SDS011;2808;51.240;6.794;2023-09-30T16:08:32;14.00;;;3.87;;
5569;SDS011;2808;51.240;6.794;2023-09-30T16:10:59;11.20;;;3.67;;
5569;SDS011;2808;51.240;6.794;2023-09-30T16:13:28;11.63;;;4.30;;
5569;SDS011;2808;51.240;6.794;2023-09-30T16:15:59;9.93;;;3.80;;
5569;SDS011;2808;51.240;6.794;2023-09-30T16:18:26;8.13;;;3.27;;
5569;SDS011;2808;51.240;6.794;2023-09-30T16:20:53;11.30;;;4.10;;
5569;SDS011;2808;51.240;6.794;2023-09-30T16:23:22;10.87;;;3.40;;
5569;SDS011;2808;51.240;6.794;2023-09-30T16:25:50;8.47;;;3.30;;
5569;SDS011;2808;51.240;6.794;2023-09-30T16:28:17;9.70;;;3.90;;
5569;SDS011;2808;51.240;6.794;2023-09-30T16:30:44;10.40;;;5.23;;
5569;SDS011;2808;51.240;6.794;2023-09-30T16:33:12;10.00;;;4.20;;
5569;SDS011;2808;51.240;6.794;2023-09-30T16:35:42;10.77;;;4.20;;
5569;SDS011;2808;51.240;6.794;2023-09-30T16:38:15;10.33;;;3.37;;
5569;SDS011;2808;51.240;6.794;2023-09-30T16:40:47;9.10;;;4.00;;
5569;SDS011;2808;51.240;6.794;2023-09-30T16:43:34;10.57;;;3.60;;
5569;SDS011;2808;51.240;6.794;2023-09-30T16:46:28;8.23;;;3.67;;
5569;SDS011;2808;51.240;6.794;2023-09-30T16:48:55;13.20;;;3.50;;
5569;SDS011;2808;51.240;6.794;2023-09-30T16:54:44;9.30;;;4.10;;
5569;SDS011;2808;51.240;6.794;2023-09-30T16:57:29;13.27;;;3.37;;
5569;SDS011;2808;51.240;6.794;2023-09-30T17:02:36;8.87;;;3.50;;
5569;SDS011;2808;51.240;6.794;2023-09-30T17:05:04;8.70;;;3.70;;
5569;SDS011;2808;51.240;6.794;2023-09-30T17:07:32;9.53;;;4.00;;
5569;SDS011;2808;51.240;6.794;2023-09-30T17:09:59;10.33;;;3.70;;
5569;SDS011;2808;51.240;6.794;2023-09-30T17:12:28;9.47;;;4.07;;
5569;SDS011;2808;51.240;6.794;2023-09-30T17:14:56;13.60;;;4.10;;
5569;SDS011;2808;51.240;6.794;2023-09-30T17:17:23;8.80;;;4.07;;
5569;SDS011;2808;51.240;6.794;2023-09-30T17:19:52;17.07;;;4.90;;
5569;SDS011;2808;51.240;6.794;2023-09-30T17:22:19;12.33;;;4.13;;
5569;SDS011;2808;51.240;6.794;2023-09-30T17:24:47;11.77;;;4.07;;
5569;SDS011;2808;51.240;6.794;2023-09-30T17:27:14;12.50;;;3.80;;
5569;SDS011;2808;51.240;6.794;2023-09-30T17:29:46;8.17;;;3.43;;
5569;SDS011;2808;51.240;6.794;2023-09-30T17:32:14;11.13;;;4.60;;
5569;SDS011;2808;51.240;6.794;2023-09-30T17:34:44;10.80;;;3.83;;
5569;SDS011;2808;51.240;6.794;2023-09-30T17:37:11;9.07;;;4.20;;
5569;SDS011;2808;51.240;6.794;2023-09-30T17:39:39;16.03;;;4.77;;
5569;SDS011;2808;51.240;6.794;2023-09-30T17:42:08;14.70;;;4.30;;
5569;SDS011;2808;51.240;6.794;2023-09-30T17:44:35;10.50;;;4.33;;
5569;SDS011;2808;51.240;6.794;2023-09-30T17:47:04;12.30;;;4.47;;
5569;SDS011;2808;51.240;6.794;2023-09-30T17:49:31;12.43;;;4.60;;
5569;SDS011;2808;51.240;6.794;2023-09-30T17:51:58;9.93;;;3.93;;
5569;SDS011;2808;51.240;6.794;2023-09-30T17:54:26;11.73;;;4.40;;
5569;SDS011;2808;51.240;6.794;2023-09-30T17:56:54;11.40;;;4.47;;
5569;SDS011;2808;51.240;6.794;2023-09-30T17:59:23;15.57;;;6.80;;
5569;SDS011;2808;51.240;6.794;2023-09-30T18:01:50;11.20;;;5.60;;
5569;SDS011;2808;51.240;6.794;2023-09-30T18:04:19;13.20;;;5.60;;
5569;SDS011;2808;51.240;6.794;2023-09-30T18:06:49;13.47;;;5.50;;
5569;SDS011;2808;51.240;6.794;2023-09-30T18:09:18;13.17;;;5.40;;
5569;SDS011;2808;51.240;6.794;2023-09-30T18:11:51;14.47;;;5.67;;
5569;SDS011;2808;51.240;6.794;2023-09-30T18:14:19;14.20;;;5.00;;
5569;SDS011;2808;51.240;6.794;2023-09-30T18:16:46;14.20;;;5.60;;
5569;SDS011;2808;51.240;6.794;2023-09-30T18:19:13;13.17;;;5.73;;
5569;SDS011;2808;51.240;6.794;2023-09-30T18:21:42;11.90;;;5.17;;
5569;SDS011;2808;51.240;6.794;2023-09-30T18:24:09;12.73;;;5.30;;
5569;SDS011;2808;51.240;6.794;2023-09-30T18:26:40;17.47;;;5.20;;
5569;SDS011;2808;51.240;6.794;2023-09-30T18:29:07;12.40;;;5.17;;
5569;SDS011;2808;51.240;6.794;2023-09-30T18:31:35;15.73;;;5.80;;
5569;SDS011;2808;51.240;6.794;2023-09-30T18:34:02;15.20;;;6.10;;
5569;SDS011;2808;51.240;6.794;2023-09-30T18:36:30;14.83;;;6.40;;
5569;SDS011;2808;51.240;6.794;2023-09-30T18:38:59;19.67;;;7.37;;
5569;SDS011;2808;51.240;6.794;2023-09-30T18:41:27;18.67;;;9.77;;
5569;SDS011;2808;51.240;6.794;2023-09-30T18:43:55;30.43;;;17.87;;
5569;SDS011;2808;51.240;6.794;2023-09-30T18:46:22;24.37;;;14.27;;
5569;SDS011;2808;51.240;6.794;2023-09-30T18:48:56;40.00;;;22.80;;
5569;SDS011;2808;51.240;6.794;2023-09-30T18:51:25;27.87;;;11.83;;
5569;SDS011;2808;51.240;6.794;2023-09-30T18:53:54;22.03;;;7.50;;
5569;SDS011;2808;51.240;6.794;2023-09-30T18:56:23;14.73;;;7.10;;
5569;SDS011;2808;51.240;6.794;2023-09-30T18:58:50;15.53;;;6.30;;
5569;SDS011;2808;51.240;6.794;2023-09-30T19:01:20;13.37;;;5.63;;
5569;SDS011;2808;51.240;6.794;2023-09-30T19:03:57;16.47;;;6.47;;
5569;SDS011;2808;51.240;6.794;2023-09-30T19:06:57;15.03;;;6.33;;
5569;SDS011;2808;51.240;6.794;2023-09-30T19:09:25;30.60;;;14.33;;
5569;SDS011;2808;51.240;6.794;2023-09-30T19:11:53;24.63;;;11.60;;
5569;SDS011;2808;51.240;6.794;2023-09-30T19:14:21;15.50;;;7.63;;
5569;SDS011;2808;51.240;6.794;2023-09-30T19:16:48;17.27;;;6.93;;